Time;durP1;ratioP1;P1;durP2;ratioP2;P2;SDS_P1;SDS_P2;PMS_P1;PMS_P2;Temp;Humidity;BMP_temperature;BMP_pressure;BME280_temperature;BME280_humidity;BME280_pressure;Samples;Min_cycle;Max_cycle;Signal;HPM_P1;HPM_P2
2022/04/04 00:00:43;;;;;;;7.50;2.90;;;4.80;99.90;;;;;;5076901;28;20126;-84
2022/04/04 00:03:10;;;;;;;6.38;3.38;;;4.80;99.90;;;;;;5076751;28;20028;-84
2022/04/04 00:05:36;;;;;;;4.72;2.85;;;4.80;99.90;;;;;;5076325;28;20031;-84
2022/04/04 00:08:03;;;;;;;8.68;3.38;;;4.80;99.90;;;;;;5057906;28;20157;-85
2022/04/04 00:10:28;;;;;;;5.75;2.80;;;4.80;99.90;;;;;;5073103;28;20020;-84
2022/04/04 00:12:54;;;;;;;9.07;3.70;;;4.70;99.90;;;;;;5069248;28;20028;-85
2022/04/04 00:15:20;;;;;;;4.85;3.20;;;4.70;99.90;;;;;;5090039;28;20039;-85
2022/04/04 00:17:46;;;;;;;6.38;3.05;;;4.70;99.90;;;;;;5068910;28;20031;-85
2022/04/04 00:20:12;;;;;;;4.93;2.95;;;4.70;99.90;;;;;;5071837;28;20035;-85
2022/04/04 00:22:38;;;;;;;7.70;3.05;;;4.70;99.90;;;;;;5073407;28;20031;-85
2022/04/04 00:25:05;;;;;;;8.13;3.55;;;4.60;99.90;;;;;;5071875;28;20110;-85
2022/04/04 00:27:30;;;;;;;6.47;3.30;;;4.60;99.90;;;;;;5076187;28;20024;-85
2022/04/04 00:29:56;;;;;;;7.00;3.28;;;4.60;99.90;;;;;;5063256;28;20041;-87
2022/04/04 00:32:22;;;;;;;4.53;3.00;;;4.60;99.90;;;;;;5076688;28;20765;-87
2022/04/04 00:34:48;;;;;;;6.35;3.10;;;4.60;99.90;;;;;;5088678;28;20476;-85
2022/04/04 00:37:14;;;;;;;6.60;3.50;;;4.60;99.90;;;;;;5094046;28;20035;-84
2022/04/04 00:39:41;;;;;;;6.57;3.78;;;4.60;99.90;;;;;;5070297;28;20032;-85
2022/04/04 00:42:07;;;;;;;7.05;3.00;;;4.50;99.90;;;;;;5075252;28;20016;-85
2022/04/04 00:44:33;;;;;;;8.73;4.72;;;4.50;99.90;;;;;;5060613;28;20036;-86
2022/04/04 00:46:58;;;;;;;6.57;3.50;;;4.50;99.90;;;;;;5071351;28;20036;-84
2022/04/04 00:49:24;;;;;;;8.95;4.65;;;4.40;99.90;;;;;;5066113;28;20101;-85
2022/04/04 00:51:50;;;;;;;8.23;4.22;;;4.40;99.90;;;;;;5056387;28;20036;-85
2022/04/04 00:54:16;;;;;;;6.55;3.60;;;4.40;99.90;;;;;;5075618;28;20029;-84
2022/04/04 00:56:43;;;;;;;8.30;4.28;;;4.40;99.90;;;;;;5042898;28;20491;-85
2022/04/04 00:59:13;;;;;;;8.45;4.13;;;4.40;99.90;;;;;;5084464;28;20143;-86
2022/04/04 01:01:39;;;;;;;7.53;4.15;;;4.40;99.90;;;;;;5073375;28;20025;-86
2022/04/04 01:04:06;;;;;;;7.10;4.32;;;4.40;99.90;;;;;;5066133;28;20048;-85
2022/04/04 01:06:32;;;;;;;6.22;3.83;;;4.40;99.90;;;;;;5074968;28;20107;-84
2022/04/04 01:08:58;;;;;;;9.70;4.32;;;4.30;99.90;;;;;;5068990;28;20491;-84
2022/04/04 01:11:24;;;;;;;7.53;4.20;;;4.30;99.90;;;;;;5058993;28;20028;-85
2022/04/04 01:13:50;;;;;;;6.22;3.90;;;4.30;99.90;;;;;;5048146;28;20029;-84
2022/04/04 01:16:16;;;;;;;6.40;3.90;;;4.30;99.90;;;;;;5083794;28;20354;-84
2022/04/04 01:18:42;;;;;;;7.18;3.80;;;4.30;99.90;;;;;;5088713;28;20032;-84
2022/04/04 01:21:09;;;;;;;7.00;4.05;;;4.30;99.90;;;;;;5091148;28;20036;-87
2022/04/04 01:23:40;;;;;;;8.13;4.03;;;4.30;99.90;;;;;;5085446;28;20028;-87
2022/04/04 01:26:09;;;;;;;7.28;4.10;;;4.20;99.90;;;;;;5095265;28;20023;-85
2022/04/04 01:28:34;;;;;;;8.43;4.32;;;4.20;99.90;;;;;;5085349;28;20043;-86
2022/04/04 01:31:01;;;;;;;5.70;3.50;;;4.20;99.90;;;;;;5060150;28;20056;-85
2022/04/04 01:33:26;;;;;;;8.20;3.88;;;4.20;99.90;;;;;;5074929;28;20070;-84
2022/04/04 01:35:52;;;;;;;6.93;4.55;;;4.20;99.90;;;;;;5075892;28;20035;-84
2022/04/04 01:38:18;;;;;;;7.72;3.75;;;4.10;99.90;;;;;;5041515;28;20040;-86
2022/04/04 01:40:44;;;;;;;9.52;3.50;;;4.10;99.90;;;;;;5090860;28;20038;-85
2022/04/04 01:43:10;;;;;;;5.88;3.38;;;4.10;99.90;;;;;;5035247;28;20020;-89
2022/04/04 01:48:20;;;;;;;9.88;3.90;;;4.10;99.90;;;;;;5076884;28;20110;-85
2022/04/04 01:50:45;;;;;;;5.45;3.55;;;4.10;99.90;;;;;;5056562;28;20025;-85
2022/04/04 01:53:26;;;;;;;8.43;3.85;;;4.10;99.90;;;;;;5060323;28;20077;-86
2022/04/04 01:55:54;;;;;;;6.95;3.75;;;4.10;99.90;;;;;;5053419;28;20485;-85
2022/04/04 01:58:20;;;;;;;7.28;4.32;;;4.20;99.90;;;;;;5063838;28;20115;-84
2022/04/04 02:00:49;;;;;;;7.63;4.38;;;4.10;99.90;;;;;;5057807;28;20137;-85
2022/04/04 02:03:15;;;;;;;7.45;4.53;;;4.20;99.90;;;;;;5074556;28;20032;-85
2022/04/04 02:05:40;;;;;;;8.15;4.50;;;4.10;99.90;;;;;;5055317;28;20438;-85
2022/04/04 02:08:06;;;;;;;8.15;4.35;;;4.20;99.90;;;;;;5045613;28;20468;-85
2022/04/04 02:10:32;;;;;;;7.43;3.92;;;4.10;99.90;;;;;;5055044;28;20037;-86
2022/04/04 02:12:58;;;;;;;9.15;4.78;;;4.20;99.90;;;;;;5075535;28;20028;-85
2022/04/04 02:15:24;;;;;;;8.23;4.65;;;4.10;99.90;;;;;;5073104;28;20035;-87
2022/04/04 02:17:51;;;;;;;9.00;4.40;;;4.20;99.90;;;;;;5093303;28;20484;-84
2022/04/04 02:20:17;;;;;;;7.32;4.68;;;4.20;99.90;;;;;;5090355;28;20040;-84
2022/04/04 02:22:43;;;;;;;10.50;5.03;;;4.20;99.90;;;;;;5056290;28;20181;-84
2022/04/04 02:25:09;;;;;;;12.13;4.47;;;4.20;99.90;;;;;;5062869;28;20456;-84
2022/04/04 02:27:35;;;;;;;8.55;4.38;;;4.10;99.90;;;;;;5066528;28;20052;-87
2022/04/04 02:30:00;;;;;;;8.98;5.07;;;4.10;99.90;;;;;;5075499;28;20377;-87
2022/04/04 02:32:26;;;;;;;8.95;4.63;;;4.10;99.90;;;;;;5073288;28;20070;-84
2022/04/04 02:34:52;;;;;;;9.48;4.38;;;4.10;99.90;;;;;;5051637;28;20050;-84
2022/04/04 02:37:18;;;;;;;8.05;5.75;;;4.10;99.90;;;;;;5094185;28;20008;-87
2022/04/04 02:39:44;;;;;;;9.35;5.28;;;4.10;99.90;;;;;;5095368;28;20036;-86
2022/04/04 02:42:10;;;;;;;10.50;5.57;;;4.10;99.90;;;;;;5092965;28;20015;-84
2022/04/04 02:44:36;;;;;;;10.38;5.53;;;4.10;99.90;;;;;;5074514;28;20029;-89
2022/04/04 02:47:02;;;;;;;11.45;5.70;;;4.10;99.90;;;;;;5077780;28;20009;-86
2022/04/04 02:49:30;;;;;;;8.60;5.63;;;4.10;99.90;;;;;;5072572;28;20032;-87
2022/04/04 02:51:57;;;;;;;10.25;6.18;;;4.10;99.90;;;;;;5050666;28;20549;-86
2022/04/04 02:54:23;;;;;;;9.65;5.65;;;4.10;99.90;;;;;;5076576;28;20046;-85
2022/04/04 02:56:49;;;;;;;9.32;6.07;;;4.10;99.90;;;;;;5061469;28;20058;-85
2022/04/04 02:59:15;;;;;;;10.77;5.60;;;4.10;99.90;;;;;;5073153;28;20044;-85
2022/04/04 03:01:48;;;;;;;10.85;5.68;;;4.10;99.90;;;;;;5071463;28;20048;-86
2022/04/04 03:04:14;;;;;;;8.43;5.55;;;4.10;99.90;;;;;;5087054;28;20020;-85
2022/04/04 03:06:40;;;;;;;10.25;5.85;;;4.10;99.90;;;;;;5059587;28;20025;-86
2022/04/04 03:09:07;;;;;;;9.38;5.72;;;4.10;99.90;;;;;;5075150;28;20032;-86
2022/04/04 03:11:33;;;;;;;9.70;5.97;;;4.10;99.90;;;;;;5074470;28;20028;-86
2022/04/04 03:13:58;;;;;;;10.88;5.88;;;4.00;99.90;;;;;;5059437;28;20027;-85
2022/04/04 03:16:25;;;;;;;10.27;5.70;;;4.10;99.90;;;;;;5059087;28;20633;-87
2022/04/04 03:18:53;;;;;;;10.15;6.00;;;4.10;99.90;;;;;;5092778;28;20072;-85
2022/04/04 03:21:18;;;;;;;8.55;5.57;;;4.20;99.90;;;;;;5073596;28;20036;-85
2022/04/04 03:23:44;;;;;;;10.15;5.88;;;4.20;99.90;;;;;;5075458;28;20033;-86
2022/04/04 03:26:10;;;;;;;9.48;5.78;;;4.20;99.90;;;;;;5076349;28;20030;-85
2022/04/04 03:28:36;;;;;;;9.20;6.03;;;4.10;99.90;;;;;;5075736;28;20032;-86
2022/04/04 03:31:04;;;;;;;8.82;6.00;;;4.20;99.90;;;;;;5059756;28;20103;-85
2022/04/04 03:33:30;;;;;;;10.68;5.32;;;4.20;99.90;;;;;;5076039;28;20020;-85
2022/04/04 03:35:56;;;;;;;8.18;5.25;;;4.20;99.90;;;;;;5059453;28;20043;-85
2022/04/04 03:38:21;;;;;;;9.63;5.88;;;4.20;99.90;;;;;;5094823;28;20464;-88
2022/04/04 03:40:47;;;;;;;9.07;5.82;;;4.20;99.90;;;;;;5076131;28;20448;-85
2022/04/04 03:43:13;;;;;;;11.68;5.18;;;4.20;99.90;;;;;;5059247;28;20073;-85
2022/04/04 03:45:39;;;;;;;11.15;5.93;;;4.20;99.90;;;;;;5076505;28;20028;-85
2022/04/04 03:48:05;;;;;;;10.30;5.47;;;4.20;99.90;;;;;;5075778;28;20429;-84
2022/04/04 03:50:31;;;;;;;10.20;5.60;;;4.20;99.90;;;;;;5059361;28;20028;-85
2022/04/04 03:52:57;;;;;;;12.95;5.75;;;4.20;99.90;;;;;;5094261;28;20024;-84
2022/04/04 03:55:37;;;;;;;8.98;6.03;;;4.30;99.90;;;;;;5094385;28;20032;-85
2022/04/04 03:58:03;;;;;;;10.25;5.65;;;4.30;99.90;;;;;;5093933;28;20020;-86
2022/04/04 04:00:29;;;;;;;11.35;5.35;;;4.30;99.90;;;;;;5058945;28;20395;-86
2022/04/04 04:02:55;;;;;;;8.65;5.15;;;4.20;99.90;;;;;;5094250;28;20094;-85
2022/04/04 04:05:21;;;;;;;8.02;5.05;;;4.20;99.90;;;;;;5076547;28;20046;-85
2022/04/04 04:07:47;;;;;;;10.90;5.57;;;4.30;99.90;;;;;;5059134;28;20028;-86
2022/04/04 04:10:13;;;;;;;9.05;5.45;;;4.30;99.90;;;;;;5076312;28;20032;-85
2022/04/04 04:12:40;;;;;;;8.57;5.65;;;4.30;99.90;;;;;;5077694;28;20031;-85
2022/04/04 04:15:12;;;;;;;8.02;4.97;;;4.20;99.90;;;;;;5063983;28;20028;-85
2022/04/04 04:17:38;;;;;;;10.10;4.88;;;4.30;99.90;;;;;;5078963;28;20023;-86
2022/04/04 04:20:20;;;;;;;9.05;4.88;;;4.30;99.90;;;;;;5062807;28;20132;-85
2022/04/04 04:22:47;;;;;;;10.38;5.38;;;4.30;99.90;;;;;;5051432;28;20028;-84
2022/04/04 04:25:16;;;;;;;10.98;5.65;;;4.30;99.90;;;;;;5080709;28;20103;-84
2022/04/04 04:27:43;;;;;;;9.35;5.03;;;4.40;99.90;;;;;;5064565;28;20380;-84
2022/04/04 04:30:10;;;;;;;8.95;5.70;;;4.40;99.90;;;;;;5100239;28;20028;-84
2022/04/04 04:32:36;;;;;;;9.65;5.80;;;4.40;99.90;;;;;;5066423;28;20051;-85
2022/04/04 04:35:02;;;;;;;10.27;5.47;;;4.40;99.90;;;;;;5106035;28;20028;-85
2022/04/04 04:37:27;;;;;;;9.90;5.30;;;4.50;99.90;;;;;;5096799;28;20024;-86
2022/04/04 04:39:53;;;;;;;10.75;5.28;;;4.40;99.90;;;;;;5094395;28;20040;-85
2022/04/04 04:42:19;;;;;;;9.93;5.13;;;4.40;99.90;;;;;;5095372;28;20038;-85
2022/04/04 04:44:45;;;;;;;8.68;4.78;;;4.50;99.90;;;;;;5111624;28;20028;-84
2022/04/04 04:47:11;;;;;;;9.52;5.60;;;4.40;99.90;;;;;;5103289;28;20028;-84
2022/04/04 04:49:37;;;;;;;8.75;5.45;;;4.50;99.90;;;;;;5100564;28;20031;-84
2022/04/04 04:52:03;;;;;;;7.50;5.22;;;4.40;99.90;;;;;;5075819;28;20091;-84
2022/04/04 04:54:32;;;;;;;10.48;5.90;;;4.50;99.90;;;;;;5084685;28;20032;-87
2022/04/04 04:56:57;;;;;;;7.32;4.57;;;4.50;99.90;;;;;;5101076;28;20004;-84
2022/04/04 04:59:23;;;;;;;12.18;5.60;;;4.50;99.90;;;;;;5100306;28;20047;-84
2022/04/04 05:01:49;;;;;;;11.00;5.30;;;4.50;99.90;;;;;;5074486;28;20032;-84
2022/04/04 05:04:15;;;;;;;8.88;5.28;;;4.50;99.90;;;;;;5084765;28;20047;-84
2022/04/04 05:06:41;;;;;;;11.07;5.43;;;4.50;99.90;;;;;;5078989;28;20020;-85
2022/04/04 05:09:07;;;;;;;8.65;5.57;;;4.60;99.90;;;;;;5068110;28;20118;-84
2022/04/04 05:11:32;;;;;;;10.00;5.40;;;4.60;99.90;;;;;;5066376;28;20028;-84
2022/04/04 05:13:58;;;;;;;8.13;5.50;;;4.60;99.90;;;;;;5107451;28;20024;-85
2022/04/04 05:16:28;;;;;;;12.27;6.53;;;4.60;99.90;;;;;;5097700;28;20067;-85
2022/04/04 05:18:56;;;;;;;10.73;5.60;;;4.60;99.90;;;;;;5074412;28;20051;-87
2022/04/04 05:21:22;;;;;;;8.98;5.65;;;4.70;99.90;;;;;;5086074;28;20078;-84
2022/04/04 05:23:47;;;;;;;13.02;6.68;;;4.70;99.90;;;;;;5086212;28;20062;-85
2022/04/04 05:26:13;;;;;;;14.65;6.30;;;4.70;99.90;;;;;;5086613;28;20016;-85
2022/04/04 05:28:39;;;;;;;10.48;5.55;;;4.70;99.90;;;;;;5071632;28;20039;-86
2022/04/04 05:31:05;;;;;;;13.10;6.72;;;4.80;99.90;;;;;;5083176;28;20008;-85
2022/04/04 05:33:31;;;;;;;12.65;7.18;;;4.80;99.90;;;;;;5084131;28;20038;-88
2022/04/04 05:35:57;;;;;;;10.13;5.93;;;4.80;99.90;;;;;;5102191;28;20012;-86
2022/04/04 05:38:23;;;;;;;9.77;5.75;;;4.80;99.90;;;;;;5086461;28;20055;-88
2022/04/04 05:40:48;;;;;;;10.93;5.70;;;4.90;99.90;;;;;;5083595;28;20047;-87
2022/04/04 05:43:14;;;;;;;9.18;5.35;;;4.90;99.90;;;;;;5063962;28;20020;-86
2022/04/04 05:45:40;;;;;;;9.93;6.05;;;4.90;99.90;;;;;;5062191;28;20028;-86
2022/04/04 05:48:07;;;;;;;11.40;6.10;;;4.90;99.90;;;;;;5096939;28;20028;-88
2022/04/04 05:50:35;;;;;;;11.88;6.40;;;5.00;99.90;;;;;;5086347;28;20027;-87
2022/04/04 05:53:00;;;;;;;9.40;5.60;;;5.10;99.90;;;;;;5091037;28;20028;-87
2022/04/04 05:55:26;;;;;;;9.93;5.38;;;5.00;99.90;;;;;;5099291;28;20590;-87
2022/04/04 05:57:52;;;;;;;9.35;5.53;;;5.10;99.90;;;;;;5061809;28;20030;-87
2022/04/04 06:00:18;;;;;;;14.50;6.45;;;5.10;99.90;;;;;;5095989;28;20064;-88
2022/04/04 06:02:45;;;;;;;8.85;5.40;;;5.10;99.90;;;;;;5077554;28;20380;-87
2022/04/04 06:05:11;;;;;;;10.00;6.18;;;5.20;99.90;;;;;;5077943;28;20024;-87
2022/04/04 06:07:39;;;;;;;13.75;6.22;;;5.20;99.90;;;;;;5077214;28;20089;-88
2022/04/04 06:10:07;;;;;;;14.75;6.20;;;5.20;99.90;;;;;;5061173;28;20039;-88
2022/04/04 06:12:36;;;;;;;11.00;5.75;;;5.20;99.90;;;;;;5103032;28;20024;-88
2022/04/04 06:15:02;;;;;;;9.32;5.57;;;5.30;99.90;;;;;;5084547;28;20028;-87
2022/04/04 06:17:28;;;;;;;10.20;6.00;;;5.30;99.90;;;;;;5088998;28;20091;-87
2022/04/04 06:19:55;;;;;;;9.75;5.57;;;5.30;99.90;;;;;;5096604;28;20020;-86
2022/04/04 06:22:22;;;;;;;10.20;5.55;;;5.40;99.90;;;;;;5098578;28;20009;-86
2022/04/04 06:24:49;;;;;;;10.77;6.00;;;5.40;99.90;;;;;;5094736;28;20024;-87
2022/04/04 06:27:15;;;;;;;10.27;6.10;;;5.50;99.90;;;;;;5073932;28;20024;-88
2022/04/04 06:29:42;;;;;;;10.18;5.35;;;5.50;99.90;;;;;;5091469;28;20036;-85
2022/04/04 06:32:10;;;;;;;8.48;5.32;;;5.50;99.90;;;;;;5089004;28;20107;-88
2022/04/04 06:34:36;;;;;;;13.13;6.20;;;5.60;99.90;;;;;;5067025;28;20032;-86
2022/04/04 06:37:02;;;;;;;10.00;5.20;;;5.60;99.90;;;;;;5076167;28;20028;-87
2022/04/04 06:39:28;;;;;;;10.68;5.90;;;5.60;99.90;;;;;;5076540;28;20397;-86
2022/04/04 06:41:55;;;;;;;9.02;5.63;;;5.70;99.90;;;;;;5076120;28;20119;-86
2022/04/04 06:44:20;;;;;;;7.68;5.38;;;5.70;99.90;;;;;;5058929;28;20081;-85
2022/04/04 06:46:46;;;;;;;9.15;5.85;;;5.80;99.90;;;;;;5075471;28;20036;-85
2022/04/04 06:49:12;;;;;;;11.65;5.40;;;5.80;99.90;;;;;;5059330;28;20097;-86
2022/04/04 06:51:38;;;;;;;9.80;5.05;;;5.90;99.90;;;;;;5059508;28;20055;-85
2022/04/04 06:54:05;;;;;;;9.32;5.22;;;5.90;99.90;;;;;;5076252;28;20106;-85
2022/04/04 06:56:37;;;;;;;10.07;5.80;;;6.00;99.90;;;;;;5076783;28;20035;-86
2022/04/04 06:59:03;;;;;;;11.07;5.40;;;6.00;99.90;;;;;;5076600;28;20460;-86
2022/04/04 07:01:32;;;;;;;9.85;5.72;;;6.10;99.90;;;;;;5059699;28;20056;-87
2022/04/04 07:03:58;;;;;;;10.93;5.30;;;6.10;99.90;;;;;;5059776;28;20085;-86
2022/04/04 07:06:25;;;;;;;7.68;4.75;;;6.10;99.90;;;;;;5076274;28;20024;-86
2022/04/04 07:08:51;;;;;;;10.45;5.88;;;6.20;99.90;;;;;;5094051;28;20036;-86
2022/04/04 07:11:17;;;;;;;8.63;4.75;;;6.20;99.90;;;;;;5075890;28;20020;-86
2022/04/04 07:13:44;;;;;;;10.60;5.95;;;6.20;99.90;;;;;;5058428;28;20031;-88
2022/04/04 07:16:10;;;;;;;6.95;4.63;;;6.30;99.90;;;;;;5075607;28;20023;-86
2022/04/04 07:18:36;;;;;;;7.25;4.65;;;6.30;99.90;;;;;;5074817;28;20032;-85
2022/04/04 07:21:01;;;;;;;8.52;4.30;;;6.30;99.90;;;;;;5074499;28;20114;-87
2022/04/04 07:23:27;;;;;;;7.43;4.35;;;6.40;99.90;;;;;;5043727;28;20384;-84
2022/04/04 07:25:53;;;;;;;8.30;4.80;;;6.40;99.90;;;;;;5054805;28;20598;-84
2022/04/04 07:28:20;;;;;;;9.55;5.00;;;6.50;99.90;;;;;;5038396;28;20467;-85
2022/04/04 07:30:46;;;;;;;7.07;5.05;;;6.60;99.90;;;;;;5055048;28;20048;-86
2022/04/04 07:33:15;;;;;;;9.23;4.78;;;6.60;99.90;;;;;;5037741;28;20020;-84
2022/04/04 07:35:41;;;;;;;8.43;4.65;;;6.60;99.90;;;;;;5038972;28;20389;-86
2022/04/04 07:38:08;;;;;;;8.60;4.38;;;6.60;99.90;;;;;;5054905;28;20025;-86
2022/04/04 07:40:34;;;;;;;8.48;5.18;;;6.70;99.90;;;;;;5073150;28;20033;-86
2022/04/04 07:43:00;;;;;;;11.13;4.82;;;6.70;99.90;;;;;;5055664;28;20358;-87
2022/04/04 07:45:27;;;;;;;7.10;4.85;;;6.80;99.90;;;;;;5073195;28;20085;-85
2022/04/04 07:47:55;;;;;;;10.15;5.57;;;6.80;99.90;;;;;;5040365;28;20032;-85
2022/04/04 07:50:21;;;;;;;9.32;4.95;;;6.80;99.90;;;;;;5059056;28;20024;-87
2022/04/04 07:52:47;;;;;;;9.85;5.78;;;6.80;99.90;;;;;;5059556;28;20028;-86
2022/04/04 07:55:14;;;;;;;9.43;5.88;;;6.90;99.90;;;;;;5059427;28;20020;-85
2022/04/04 07:57:41;;;;;;;8.93;5.43;;;6.90;99.90;;;;;;5076885;28;20481;-85
2022/04/04 08:00:09;;;;;;;7.07;4.75;;;6.90;99.90;;;;;;5058239;28;20060;-86
2022/04/04 08:02:36;;;;;;;10.27;5.82;;;6.90;99.90;;;;;;5076824;28;20020;-86
2022/04/04 08:05:04;;;;;;;8.63;5.95;;;6.90;99.90;;;;;;5041953;28;20025;-89
2022/04/04 08:07:30;;;;;;;13.55;6.68;;;6.90;99.90;;;;;;5059435;28;20074;-86
2022/04/04 08:09:56;;;;;;;11.25;5.80;;;6.80;99.90;;;;;;5042377;28;20029;-85
2022/04/04 08:12:28;;;;;;;12.90;6.50;;;6.90;99.90;;;;;;5041862;28;20051;-85
2022/04/04 08:14:54;;;;;;;14.32;6.40;;;6.80;99.90;;;;;;5077235;28;20021;-88
2022/04/04 08:17:20;;;;;;;8.45;5.97;;;6.80;99.90;;;;;;5059125;28;20077;-86
2022/04/04 08:19:46;;;;;;;11.07;6.18;;;6.80;99.90;;;;;;5042363;28;20028;-85
2022/04/04 08:22:11;;;;;;;12.15;6.13;;;6.80;99.90;;;;;;5059326;28;20060;-86
2022/04/04 08:24:37;;;;;;;11.55;6.78;;;6.80;99.90;;;;;;5076760;28;20473;-85
2022/04/04 08:27:03;;;;;;;10.90;6.05;;;6.70;99.90;;;;;;5058334;28;20036;-86
2022/04/04 08:29:28;;;;;;;10.93;5.97;;;6.80;99.90;;;;;;5058719;28;20036;-84
2022/04/04 08:31:54;;;;;;;10.52;6.72;;;6.70;99.90;;;;;;5041532;28;20465;-85
2022/04/04 08:34:20;;;;;;;9.70;6.88;;;6.70;99.90;;;;;;5058143;28;20016;-85
2022/04/04 08:36:46;;;;;;;8.77;5.90;;;6.70;99.90;;;;;;5058304;28;20457;-85
2022/04/04 08:39:12;;;;;;;9.73;6.07;;;6.80;99.90;;;;;;5075988;28;20064;-84
2022/04/04 08:41:38;;;;;;;11.45;7.00;;;6.80;99.90;;;;;;5058358;28;20056;-85
2022/04/04 08:44:05;;;;;;;11.55;6.45;;;6.80;99.90;;;;;;5041691;28;20029;-86
2022/04/04 08:46:33;;;;;;;12.82;7.03;;;6.80;99.90;;;;;;5058449;28;20021;-87
2022/04/04 08:49:00;;;;;;;14.45;6.93;;;6.90;99.90;;;;;;5041878;28;20123;-85
2022/04/04 08:51:27;;;;;;;11.25;6.60;;;6.90;99.90;;;;;;5041670;28;20033;-85
2022/04/04 08:53:53;;;;;;;12.07;6.18;;;7.00;99.90;;;;;;5057991;28;20028;-87
2022/04/04 08:56:23;;;;;;;10.73;6.13;;;7.10;99.90;;;;;;5058331;28;20114;-88
2022/04/04 08:58:49;;;;;;;13.15;6.25;;;7.10;99.90;;;;;;5057939;28;20024;-86
2022/04/04 09:01:16;;;;;;;12.25;6.72;;;7.10;99.90;;;;;;5058897;28;20044;-85
2022/04/04 09:03:41;;;;;;;12.55;7.32;;;7.10;99.90;;;;;;5059335;28;20021;-85
2022/04/04 09:06:07;;;;;;;12.82;7.50;;;7.10;99.90;;;;;;5042109;28;20077;-86
2022/04/04 09:08:44;;;;;;;10.77;6.43;;;7.20;99.90;;;;;;5076520;28;20043;-88
2022/04/04 09:11:11;;;;;;;12.43;7.50;;;7.20;99.90;;;;;;5065404;28;20025;-84
2022/04/04 09:13:37;;;;;;;9.77;6.72;;;7.20;99.90;;;;;;5073867;28;20029;-84
2022/04/04 09:16:08;;;;;;;13.55;7.35;;;7.20;99.90;;;;;;5075507;28;20115;-85
2022/04/04 09:18:45;;;;;;;15.45;7.50;;;7.20;99.90;;;;;;5089745;28;20024;-85
2022/04/04 09:21:32;;;;;;;13.80;7.00;;;7.20;99.90;;;;;;5069300;28;20457;-85
2022/04/04 09:24:01;;;;;;;13.38;8.00;;;7.20;99.90;;;;;;5063060;28;20032;-85
2022/04/04 09:26:31;;;;;;;10.95;7.07;;;7.20;99.90;;;;;;5041958;28;20111;-84
2022/04/04 09:28:59;;;;;;;15.38;7.97;;;7.10;99.90;;;;;;5057854;28;20028;-85
2022/04/04 09:31:25;;;;;;;10.27;7.18;;;7.10;99.90;;;;;;5041007;28;20032;-85
2022/04/04 09:33:51;;;;;;;12.70;8.23;;;7.00;99.90;;;;;;5041328;28;20408;-86
2022/04/04 09:36:17;;;;;;;11.35;7.50;;;7.00;99.90;;;;;;5041782;28;20024;-85
2022/04/04 09:38:53;;;;;;;14.82;8.43;;;7.00;99.90;;;;;;5075731;28;20032;-87
2022/04/04 09:41:24;;;;;;;18.50;8.88;;;7.00;99.90;;;;;;5075529;28;20035;-86
2022/04/04 09:43:55;;;;;;;11.63;7.50;;;6.90;99.90;;;;;;5048142;28;20028;-87
2022/04/04 09:46:21;;;;;;;19.85;9.10;;;6.90;99.90;;;;;;5075098;28;20021;-86
2022/04/04 09:49:13;;;;;;;12.13;7.40;;;7.00;99.90;;;;;;5074629;28;20091;-85
2022/04/04 09:51:50;;;;;;;13.23;8.63;;;6.90;99.90;;;;;;5057856;28;20025;-86
2022/04/04 09:54:23;;;;;;;13.13;7.72;;;6.90;99.90;;;;;;5075558;28;20101;-87
2022/04/04 09:56:53;;;;;;;13.02;9.45;;;6.90;99.90;;;;;;5075947;28;20028;-87
2022/04/04 09:59:19;;;;;;;12.55;8.70;;;6.90;99.90;;;;;;5076683;28;20029;-86
2022/04/04 10:01:46;;;;;;;13.13;9.02;;;6.90;99.90;;;;;;5080643;28;20035;-88
2022/04/04 10:04:13;;;;;;;13.07;8.90;;;6.80;99.90;;;;;;5071471;28;20055;-88
2022/04/04 10:06:41;;;;;;;13.45;9.50;;;6.90;99.90;;;;;;5081685;28;20010;-89
2022/04/04 10:09:07;;;;;;;12.38;8.57;;;6.90;99.90;;;;;;5098144;28;20036;-88
2022/04/04 10:11:35;;;;;;;12.02;8.25;;;6.90;99.90;;;;;;5081380;28;20033;-87
2022/04/04 10:14:02;;;;;;;13.43;7.65;;;6.90;99.90;;;;;;5095839;28;20012;-89
2022/04/04 10:16:30;;;;;;;15.90;8.77;;;6.80;99.90;;;;;;5077301;28;20020;-89
2022/04/04 10:18:57;;;;;;;12.82;8.43;;;6.80;99.90;;;;;;5070714;28;20040;-88
2022/04/04 10:21:25;;;;;;;10.73;7.63;;;6.80;99.90;;;;;;5063228;28;20427;-89
2022/04/04 10:23:54;;;;;;;13.98;9.00;;;6.80;99.90;;;;;;5059090;28;20097;-89
2022/04/04 10:26:25;;;;;;;18.63;9.13;;;6.80;99.90;;;;;;5085190;28;20034;-89
2022/04/04 10:28:51;;;;;;;13.82;8.25;;;6.80;99.90;;;;;;5076809;22;20029;-86
2022/04/04 10:31:23;;;;;;;12.00;7.80;;;6.90;99.90;;;;;;5043163;28;20031;-85
2022/04/04 10:33:50;;;;;;;10.55;6.53;;;6.90;99.90;;;;;;5060490;28;20052;-85
2022/04/04 10:36:25;;;;;;;14.65;8.00;;;6.90;99.90;;;;;;5063695;28;20073;-86
2022/04/04 10:38:54;;;;;;;9.45;6.90;;;6.80;99.90;;;;;;5062093;28;20039;-86
2022/04/04 10:41:23;;;;;;;12.20;8.05;;;6.90;99.90;;;;;;5061242;28;20024;-85
2022/04/04 10:43:53;;;;;;;10.77;8.07;;;6.90;99.90;;;;;;5045423;28;20017;-86
2022/04/04 10:46:24;;;;;;;12.77;8.55;;;6.90;99.90;;;;;;5062234;28;20035;-86
2022/04/04 10:49:02;;;;;;;15.75;10.15;;;6.90;99.90;;;;;;5061692;28;20032;-87
2022/04/04 10:51:33;;;;;;;14.68;9.18;;;6.90;99.90;;;;;;5060939;28;20024;-86
2022/04/04 10:54:06;;;;;;;11.88;8.80;;;6.90;99.90;;;;;;5061735;28;20066;-86
2022/04/04 10:56:36;;;;;;;15.90;9.27;;;6.90;99.90;;;;;;5056992;28;20119;-85
2022/04/04 10:59:23;;;;;;;14.32;8.63;;;6.90;99.90;;;;;;5056752;28;20024;-85
2022/04/04 11:01:54;;;;;;;14.27;10.65;;;6.90;99.90;;;;;;5074960;28;20032;-85
2022/04/04 11:04:30;;;;;;;;;;;6.90;99.90;;;;;;5057844;28;20027;-86
2022/04/04 11:09:52;;;;;;;13.65;9.75;;;6.90;99.90;;;;;;5077983;28;20030;-86
2022/04/04 11:12:22;;;;;;;13.70;7.68;;;6.90;99.90;;;;;;5041834;28;20028;-85
2022/04/04 11:15:13;;;;;;;11.57;7.40;;;6.90;99.90;;;;;;5058129;28;20031;-86
2022/04/04 11:18:00;;;;;;;8.98;6.07;;;6.90;99.90;;;;;;5056688;28;20063;-86
2022/04/04 11:20:32;;;;;;;10.82;6.18;;;6.90;99.90;;;;;;5041983;28;20024;-87
2022/04/04 11:23:04;;;;;;;10.05;5.75;;;6.90;99.90;;;;;;5059184;28;20115;-85
2022/04/04 11:25:34;;;;;;;9.25;7.35;;;6.90;99.90;;;;;;5058592;28;20025;-84
2022/04/04 11:28:01;;;;;;;12.82;7.10;;;6.90;99.90;;;;;;5057735;28;20089;-87
2022/04/04 11:30:27;;;;;;;10.10;7.18;;;6.90;99.90;;;;;;5041380;28;20521;-86
2022/04/04 11:32:57;;;;;;;14.25;7.25;;;6.90;99.90;;;;;;5037221;28;20036;-86
2022/04/04 11:35:50;;;;;;;9.60;7.28;;;7.00;99.90;;;;;;5034364;28;20117;-86
2022/04/04 11:38:19;;;;;;;10.02;7.45;;;6.90;99.90;;;;;;5034562;28;20549;-87
2022/04/04 11:40:53;;;;;;;10.13;8.32;;;6.90;99.90;;;;;;5018319;28;20101;-86
2022/04/04 11:43:21;;;;;;;9.00;6.75;;;7.00;99.90;;;;;;5019557;28;20080;-87
2022/04/04 11:45:49;;;;;;;13.35;7.53;;;6.90;99.90;;;;;;5018899;28;20073;-87
2022/04/04 11:48:23;;;;;;;14.63;8.57;;;6.90;99.90;;;;;;5035387;28;20017;-87
2022/04/04 11:50:51;;;;;;;14.07;8.18;;;7.00;99.90;;;;;;5034596;28;20372;-86
2022/04/04 11:53:25;;;;;;;13.52;8.98;;;7.00;99.90;;;;;;5034383;28;20021;-86
2022/04/04 11:55:51;;;;;;;12.65;8.75;;;7.00;99.90;;;;;;5018313;28;20424;-87
2022/04/04 11:58:20;;;;;;;14.50;9.52;;;7.00;99.90;;;;;;5017873;28;20034;-86
2022/04/04 12:00:55;;;;;;;12.90;9.40;;;7.00;99.90;;;;;;5037191;28;20039;-86
2022/04/04 12:03:23;;;;;;;12.50;8.85;;;7.00;99.90;;;;;;5037540;28;20025;-87
2022/04/04 12:05:49;;;;;;;11.50;8.13;;;7.10;99.90;;;;;;5037883;28;20367;-86
2022/04/04 12:08:17;;;;;;;12.30;7.63;;;7.10;99.90;;;;;;5039730;28;20014;-85
2022/04/04 12:10:46;;;;;;;10.32;8.10;;;7.10;99.90;;;;;;5039408;28;20120;-87
2022/04/04 12:13:19;;;;;;;10.32;7.88;;;7.10;99.90;;;;;;5034164;28;20382;-86
2022/04/04 12:15:46;;;;;;;13.40;8.15;;;7.10;99.90;;;;;;5034325;28;20026;-87
2022/04/04 12:18:28;;;;;;;10.73;7.53;;;7.10;99.90;;;;;;5017054;28;20026;-87
2022/04/04 12:20:57;;;;;;;9.43;7.65;;;7.10;99.90;;;;;;5033529;28;20033;-86
2022/04/04 12:26:12;;;;;;;11.07;7.55;;;7.10;99.90;;;;;;5037166;28;20408;-86
2022/04/04 12:28:50;;;;;;;9.80;8.02;;;7.20;99.90;;;;;;5035490;28;20028;-86
2022/04/04 12:31:21;;;;;;;10.30;7.55;;;7.20;99.90;;;;;;5074817;28;20086;-86
2022/04/04 12:34:08;;;;;;;;;;;7.20;99.90;;;;;;5057696;28;20020;-86
2022/04/04 12:36:42;;;;;;;11.60;6.75;;;7.20;99.90;;;;;;5060608;28;20346;-86
2022/04/04 12:39:16;;;;;;;11.43;8.25;;;7.20;99.90;;;;;;5060333;28;20063;-86
2022/04/04 12:41:46;;;;;;;11.38;7.13;;;7.20;99.90;;;;;;5061621;28;20025;-86
2022/04/04 12:44:26;;;;;;;11.30;9.07;;;7.20;99.90;;;;;;5061851;28;20024;-86
2022/04/04 12:47:10;;;;;;;9.48;7.70;;;7.30;99.90;;;;;;5061039;28;20103;-87
2022/04/04 12:49:38;;;;;;;10.43;7.95;;;7.30;99.90;;;;;;5061336;28;20438;-86
2022/04/04 12:52:06;;;;;;;11.48;7.90;;;7.30;99.90;;;;;;5044929;28;20096;-86
2022/04/04 12:54:34;;;;;;;11.98;7.95;;;7.30;99.90;;;;;;5060907;28;20029;-86
2022/04/04 12:57:03;;;;;;;10.77;8.90;;;7.30;99.90;;;;;;5062593;28;20096;-86
2022/04/04 12:59:30;;;;;;;11.85;8.23;;;7.30;99.90;;;;;;5060657;28;20024;-87
2022/04/04 13:02:09;;;;;;;12.05;7.75;;;7.30;99.90;;;;;;5045232;28;20032;-86
2022/04/04 13:04:35;;;;;;;11.63;8.55;;;7.30;99.90;;;;;;5062805;28;20025;-87